Time;durP1;ratioP1;P1;durP2;ratioP2;P2;SDS_P1;SDS_P2;PMS_P1;PMS_P2;Temp;Humidity;BMP_temperature;BMP_pressure;BME280_temperature;BME280_humidity;BME280_pressure;Samples;Min_cycle;Max_cycle;Signal;HPM_P1;HPM_P2
2022/09/06 00:02:24;;;;;;;5.57;2.80;;;;;;;20.99;53.51;99861.78;5012979;28;20366;-84
2022/09/06 00:04:49;;;;;;;5.85;2.42;;;;;;;20.95;53.25;99860.81;5017031;28;20109;-84
2022/09/06 00:07:14;;;;;;;5.07;1.80;;;;;;;20.97;53.60;99864.09;5016804;28;20106;-85
2022/09/06 00:09:40;;;;;;;4.80;1.85;;;;;;;21.00;53.19;99849.56;5025924;28;20069;-85
2022/09/06 00:12:05;;;;;;;5.57;2.42;;;;;;;21.05;52.75;99851.34;5048616;28;20025;-84
2022/09/06 00:14:30;;;;;;;3.20;1.60;;;;;;;21.09;52.00;99855.06;5055040;28;20566;-82
2022/09/06 00:16:56;;;;;;;6.78;2.65;;;;;;;21.10;52.34;99846.41;5054898;28;20033;-82
2022/09/06 00:19:21;;;;;;;9.73;3.17;;;;;;;21.02;53.52;99844.50;5034117;28;20041;-87
2022/09/06 00:21:46;;;;;;;9.53;2.83;;;;;;;20.98;54.10;99840.75;5035886;28;20083;-87
2022/09/06 00:24:12;;;;;;;5.10;2.63;;;;;;;20.98;55.17;99838.00;5035498;28;20350;-82
2022/09/06 00:26:37;;;;;;;8.77;3.17;;;;;;;20.94;55.06;99837.81;5034471;28;20267;-82
2022/09/06 00:29:02;;;;;;;6.18;3.05;;;;;;;20.91;54.61;99832.13;5031095;28;20405;-87
2022/09/06 00:31:28;;;;;;;5.07;2.63;;;;;;;20.83;54.25;99828.25;5016921;28;20113;-87
2022/09/06 00:33:53;;;;;;;7.70;2.85;;;;;;;20.79;54.32;99830.88;5015049;28;20026;-85
2022/09/06 00:36:19;;;;;;;5.18;2.38;;;;;;;20.83;53.71;99840.16;5014246;28;20113;-84
2022/09/06 00:38:45;;;;;;;5.63;2.42;;;;;;;20.79;53.43;99824.53;5030835;28;20030;-85
2022/09/06 00:41:13;;;;;;;5.32;2.75;;;;;;;20.90;52.64;99830.50;5015144;28;20029;-85
2022/09/06 00:43:38;;;;;;;5.00;2.20;;;;;;;21.03;51.95;99829.47;5015217;28;20034;-87
2022/09/06 00:46:06;;;;;;;2.95;1.80;;;;;;;20.95;51.62;99833.09;5016265;28;20113;-87
2022/09/06 00:48:33;;;;;;;4.75;2.85;;;;;;;20.84;52.93;99832.66;5027928;28;20033;-85
2022/09/06 00:51:02;;;;;;;3.88;2.10;;;;;;;20.76;53.64;99826.84;5035698;28;20037;-85
2022/09/06 00:53:29;;;;;;;8.02;1.90;;;;;;;20.77;52.78;99827.63;5035957;28;20033;-87
2022/09/06 00:55:55;;;;;;;6.82;2.25;;;;;;;20.83;53.98;99828.25;5035626;28;20119;-87
2022/09/06 00:58:20;;;;;;;5.32;2.15;;;;;;;20.87;54.24;99815.34;5036224;28;20124;-85
2022/09/06 01:00:46;;;;;;;5.25;2.45;;;;;;;20.82;52.60;99830.22;5018808;28;20072;-85
2022/09/06 01:03:11;;;;;;;3.95;1.98;;;;;;;20.77;53.44;99828.44;5015879;28;20116;-85
2022/09/06 01:05:49;;;;;;;4.50;2.50;;;;;;;20.79;54.25;99830.88;5016081;28;20099;-85
2022/09/06 01:08:29;;;;;;;3.17;1.63;;;;;;;20.84;53.46;99847.31;5015762;28;20061;-85
2022/09/06 01:11:08;;;;;;;4.97;2.25;;;;;;;20.75;52.01;99924.09;5022536;28;20041;-85
2022/09/06 01:13:48;;;;;;;10.30;3.80;;;;;;;20.42;55.76;99906.91;5055237;28;20644;-87
2022/09/06 01:16:31;;;;;;;6.45;3.17;;;;;;;20.45;55.23;99913.75;5054619;28;20040;-87
2022/09/06 01:19:26;;;;;;;10.57;3.70;;;;;;;20.48;54.37;99921.38;5047980;28;20037;-84
2022/09/06 01:22:19;;;;;;;8.05;2.97;;;;;;;20.67;52.66;99916.59;5023783;28;20041;-85
2022/09/06 01:25:14;;;;;;;4.50;2.42;;;;;;;20.72;51.28;99911.72;5034899;28;20056;-84
2022/09/06 01:27:39;;;;;;;5.90;2.63;;;;;;;20.82;50.74;99902.25;5035899;28;20029;-83
2022/09/06 01:30:08;;;;;;;5.00;2.93;;;;;;;20.86;50.61;99914.28;5034229;28;20247;-83
2022/09/06 01:33:06;;;;;;;3.83;1.98;;;;;;;21.00;50.19;99907.75;5034430;28;20033;-82
2022/09/06 01:35:46;;;;;;;6.88;2.55;;;;;;;20.95;49.26;99905.94;5034286;28;20033;-84
2022/09/06 01:38:12;;;;;;;8.77;2.85;;;;;;;20.97;49.48;99902.88;5067195;28;20099;-84
2022/09/06 01:40:38;;;;;;;4.95;2.38;;;;;;;20.92;49.84;99908.56;5027805;28;20044;-85
2022/09/06 01:43:07;;;;;;;6.60;2.65;;;;;;;20.98;49.74;99916.41;5015325;28;20030;-84
2022/09/06 01:45:54;;;;;;;8.27;2.83;;;;;;;20.98;50.01;99912.81;5018538;28;20061;-83
2022/09/06 01:48:41;;;;;;;6.68;2.33;;;;;;;21.05;49.97;99915.84;5041089;28;20496;-82
2022/09/06 01:51:12;;;;;;;4.35;2.15;;;;;;;21.06;50.31;99911.97;5013028;28;20033;-82
2022/09/06 01:53:59;;;;;;;13.63;2.92;;;;;;;21.25;50.26;99899.66;5014262;28;20072;-84
2022/09/06 01:56:33;;;;;;;6.35;2.17;;;;;;;21.19;49.68;99898.22;5015377;28;20081;-85
2022/09/06 01:59:32;;;;;;;8.50;3.40;;;;;;;21.08;50.55;99903.31;5017741;28;20056;-85
2022/09/06 02:02:17;;;;;;;8.30;2.38;;;;;;;21.07;49.91;99908.03;5015076;28;20034;-85
2022/09/06 02:05:07;;;;;;;11.00;2.80;;;;;;;21.26;49.42;99914.28;5014975;28;20504;-85
2022/09/06 02:07:35;;;;;;;5.55;2.60;;;;;;;21.05;50.48;99910.31;5014901;28;20034;-87
2022/09/06 02:10:07;;;;;;;11.52;3.65;;;;;;;20.84;52.48;99916.59;5017539;28;20037;-88
2022/09/06 02:12:37;;;;;;;6.30;3.03;;;;;;;20.81;52.91;99917.22;5046806;28;20079;-86
2022/09/06 02:15:08;;;;;;;12.35;3.55;;;;;;;20.88;53.64;99911.19;5054470;28;20754;-87
2022/09/06 02:17:40;;;;;;;9.98;4.43;;;;;;;20.91;53.58;99915.25;5034723;28;20061;-83
2022/09/06 02:20:13;;;;;;;8.77;4.28;;;;;;;20.70;54.56;99918.75;5033202;28;20104;-85
2022/09/06 02:22:43;;;;;;;11.25;3.40;;;;;;;20.75;54.65;99924.09;5034790;28;20025;-84
2022/09/06 02:25:12;;;;;;;7.30;3.88;;;;;;;20.73;54.91;99929.13;5033846;28;20029;-84
2022/09/06 02:27:37;;;;;;;9.15;3.60;;;;;;;21.03;54.83;99918.16;5032541;28;20396;-85
2022/09/06 02:30:06;;;;;;;7.32;3.65;;;;;;;20.91;54.55;99915.25;5028325;28;20030;-84
2022/09/06 02:32:38;;;;;;;8.23;2.75;;;;;;;20.93;54.24;99916.53;5028965;28;20167;-84
2022/09/06 02:35:14;;;;;;;6.72;3.67;;;;;;;20.92;55.06;99914.09;5030814;28;20029;-86
2022/09/06 02:37:41;;;;;;;15.23;4.18;;;;;;;20.79;55.16;99927.81;5031701;28;20041;-87
2022/09/06 02:40:07;;;;;;;10.57;3.75;;;;;;;20.90;55.23;99921.94;5031353;28;20029;-84
2022/09/06 02:42:33;;;;;;;8.70;3.67;;;;;;;20.72;55.60;99935.84;5033135;28;20079;-85
2022/09/06 02:44:59;;;;;;;8.35;4.60;;;;;;;20.70;55.71;99921.50;5033544;28;20061;-85
2022/09/06 02:47:24;;;;;;;6.47;3.33;;;;;;;20.68;56.43;99924.63;5032690;28;20045;-85
2022/09/06 02:49:49;;;;;;;6.77;3.73;;;;;;;20.58;56.35;99909.16;5031183;28;20465;-82
2022/09/06 02:52:14;;;;;;;14.02;3.88;;;;;;;20.76;56.27;99909.09;5032154;28;20270;-82
2022/09/06 02:54:40;;;;;;;10.60;3.23;;;;;;;20.86;56.17;99902.38;5033536;28;20116;-85
2022/09/06 02:57:05;;;;;;;8.93;4.15;;;;;;;20.95;56.31;99910.69;5032715;28;20764;-85
2022/09/06 02:59:31;;;;;;;11.18;3.42;;;;;;;20.92;56.20;99903.00;5032297;28;20029;-85
2022/09/06 03:01:56;;;;;;;8.25;3.92;;;;;;;20.92;56.81;99901.06;5033612;28;20453;-84
2022/09/06 03:04:21;;;;;;;7.83;2.97;;;;;;;20.99;56.70;99901.38;5033217;28;20033;-88
2022/09/06 03:06:47;;;;;;;7.53;3.73;;;;;;;20.98;56.74;99902.53;5033799;28;20259;-87
2022/09/06 03:09:12;;;;;;;9.00;3.63;;;;;;;20.96;56.85;99895.66;5026581;28;20387;-85
2022/09/06 03:11:37;;;;;;;8.17;3.93;;;;;;;20.98;57.48;99905.31;5030020;28;20044;-84
2022/09/06 03:14:03;;;;;;;8.87;3.23;;;;;;;21.02;57.86;99905.44;5053717;28;20349;-86
2022/09/06 03:16:28;;;;;;;6.50;3.92;;;;;;;21.03;57.90;99895.97;5041426;28;20301;-85
2022/09/06 03:18:53;;;;;;;8.95;3.50;;;;;;;20.97;57.84;99891.78;5042061;28;20025;-84
2022/09/06 03:21:18;;;;;;;6.90;3.53;;;;;;;20.93;58.63;99890.81;5034077;28;20042;-85
2022/09/06 03:23:44;;;;;;;11.37;3.77;;;;;;;20.97;58.87;99900.09;5033682;28;20286;-83
2022/09/06 03:26:10;;;;;;;7.82;3.53;;;;;;;20.97;58.76;99891.78;5030567;28;20267;-83
2022/09/06 03:28:35;;;;;;;8.05;3.58;;;;;;;21.02;58.27;99888.81;5031208;28;20618;-85
2022/09/06 03:31:01;;;;;;;8.93;4.20;;;;;;;21.00;59.62;99891.13;5031450;28;20438;-85
2022/09/06 03:33:26;;;;;;;7.50;3.70;;;;;;;20.87;60.47;99887.38;5033596;28;20021;-87
2022/09/06 03:35:57;;;;;;;6.73;2.83;;;;;;;20.84;59.55;99888.88;5035101;28;20030;-87
2022/09/06 03:38:24;;;;;;;12.65;3.97;;;;;;;20.85;58.79;99890.50;5036545;28;20286;-87
2022/09/06 03:40:51;;;;;;;7.07;2.53;;;;;;;20.84;58.66;99888.88;5018509;28;20049;-87
2022/09/06 03:43:17;;;;;;;6.47;3.50;;;;;;;20.71;59.72;99885.16;5017719;28;20041;-84
2022/09/06 03:45:51;;;;;;;10.63;3.67;;;;;;;20.59;60.28;99882.25;5024353;28;20397;-85
2022/09/06 03:48:18;;;;;;;7.45;3.42;;;;;;;20.48;60.45;99873.50;5046384;28;20059;-85
2022/09/06 03:50:48;;;;;;;7.25;3.08;;;;;;;20.66;60.05;99865.97;5017503;28;20117;-86
2022/09/06 03:53:15;;;;;;;8.60;3.38;;;;;;;20.62;60.49;99876.91;5017324;28;20030;-81
2022/09/06 03:55:44;;;;;;;7.70;3.40;;;;;;;20.57;60.55;99874.28;5015028;28;20057;-82
2022/09/06 03:58:09;;;;;;;7.65;4.10;;;;;;;20.48;60.91;99859.69;5015314;28;20064;-84
2022/09/06 04:00:34;;;;;;;6.20;3.20;;;;;;;20.53;60.10;99852.00;5032820;28;20064;-85
2022/09/06 04:03:00;;;;;;;4.93;2.72;;;;;;;20.64;59.61;99871.81;5033946;28;20734;-85
2022/09/06 04:05:25;;;;;;;5.03;2.92;;;;;;;20.54;59.55;99874.97;5036764;28;20091;-84
2022/09/06 04:07:50;;;;;;;9.55;3.33;;;;;;;20.46;59.43;99873.03;5038354;28;20029;-84
2022/09/06 04:10:16;;;;;;;7.60;3.07;;;;;;;20.45;59.92;99877.75;5036167;28;20469;-84
2022/09/06 04:12:41;;;;;;;6.20;3.47;;;;;;;20.09;61.52;99877.00;5054245;28;20281;-84
2022/09/06 04:15:07;;;;;;;14.93;3.45;;;;;;;20.06;63.19;99870.13;5054113;28;20036;-82
2022/09/06 04:17:32;;;;;;;8.05;3.67;;;;;;;20.18;62.11;99872.25;5039012;28;20040;-81
2022/09/06 04:19:58;;;;;;;12.83;4.40;;;;;;;20.22;61.64;99863.31;5040779;28;20084;-87
2022/09/06 04:22:23;;;;;;;8.13;4.13;;;;;;;20.01;61.94;99861.19;5036780;28;20251;-87
2022/09/06 04:24:48;;;;;;;6.63;3.50;;;;;;;19.98;61.94;99870.94;5034141;28;20730;-85
2022/09/06 04:27:13;;;;;;;13.77;3.30;;;;;;;19.83;62.44;99875.03;5035614;28;20254;-85
2022/09/06 04:29:39;;;;;;;9.27;3.80;;;;;;;19.77;62.23;99859.75;5035144;28;20286;-85
2022/09/06 04:32:04;;;;;;;7.47;3.40;;;;;;;19.84;61.86;99849.00;5035995;28;20259;-85
2022/09/06 04:34:29;;;;;;;8.98;3.53;;;;;;;19.87;61.72;99853.06;5035550;28;20267;-86
2022/09/06 04:36:55;;;;;;;5.50;3.10;;;;;;;19.89;61.81;99865.41;5036602;28;20180;-87
2022/09/06 04:39:20;;;;;;;5.82;3.63;;;;;;;19.98;61.28;99870.13;5028403;28;20698;-84
2022/09/06 04:41:46;;;;;;;11.90;3.40;;;;;;;19.99;61.33;99871.78;5015379;28;20032;-83
2022/09/06 04:44:11;;;;;;;11.60;4.07;;;;;;;19.83;61.91;99875.03;5015524;28;20318;-83
2022/09/06 04:46:40;;;;;;;13.35;3.45;;;;;;;19.85;61.59;99870.00;5042096;28;20316;-83
2022/09/06 04:49:05;;;;;;;8.68;3.75;;;;;;;19.82;61.61;99876.16;5043635;28;20022;-82
2022/09/06 04:51:30;;;;;;;9.50;5.00;;;;;;;19.83;61.78;99869.50;5034093;28;20067;-83
2022/09/06 04:53:55;;;;;;;7.97;3.17;;;;;;;19.87;61.87;99881.50;5033904;28;20270;-82
2022/09/06 04:56:23;;;;;;;8.60;3.83;;;;;;;20.01;61.07;99875.03;5034039;28;20626;-82
2022/09/06 04:58:49;;;;;;;8.35;3.30;;;;;;;20.11;60.54;99885.78;5031036;28;20271;-85
2022/09/06 05:01:15;;;;;;;7.43;3.40;;;;;;;20.13;60.43;99877.97;5016405;28;20025;-86
2022/09/06 05:03:41;;;;;;;13.38;3.65;;;;;;;19.87;61.15;99875.97;5017481;28;20041;-87
2022/09/06 05:06:10;;;;;;;8.25;3.17;;;;;;;20.04;60.65;99880.72;5013540;28;20038;-87
2022/09/06 05:08:39;;;;;;;10.18;3.63;;;;;;;20.18;60.27;99886.09;5015157;28;20056;-85
2022/09/06 05:11:06;;;;;;;6.05;2.90;;;;;;;20.06;60.50;99883.97;5035044;28;20044;-86
2022/09/06 05:13:31;;;;;;;9.38;3.47;;;;;;;20.05;60.93;99878.75;5052299;28;20083;-86
2022/09/06 05:16:01;;;;;;;9.63;3.35;;;;;;;20.20;60.40;99882.22;5045948;28;20029;-87
2022/09/06 05:18:26;;;;;;;5.72;3.10;;;;;;;20.22;60.21;99888.22;5035523;28;20033;-86
2022/09/06 05:20:52;;;;;;;8.05;3.08;;;;;;;20.32;59.71;99887.84;5035550;28;20063;-87
2022/09/06 05:23:19;;;;;;;7.47;3.15;;;;;;;20.31;60.40;99891.78;5036186;28;20116;-83
2022/09/06 05:25:44;;;;;;;5.45;3.17;;;;;;;20.02;61.36;99890.47;5034638;28;20026;-84
2022/09/06 05:28:09;;;;;;;5.23;3.03;;;;;;;20.14;60.85;99892.59;5035047;28;20033;-84
2022/09/06 05:30:34;;;;;;;9.20;3.33;;;;;;;20.25;61.34;99898.63;5034514;28;20290;-87
2022/09/06 05:33:00;;;;;;;7.25;3.58;;;;;;;20.30;61.21;99892.91;5035702;28;20352;-87
2022/09/06 05:35:25;;;;;;;10.23;3.37;;;;;;;20.38;61.12;99899.59;5035670;28;20069;-87
2022/09/06 05:37:50;;;;;;;7.77;2.80;;;;;;;20.22;61.37;99904.84;5035796;28;20271;-87
2022/09/06 05:40:15;;;;;;;7.32;3.35;;;;;;;20.36;60.96;99897.13;5034345;28;20758;-85
2022/09/06 05:42:41;;;;;;;7.32;3.55;;;;;;;20.43;61.34;99902.19;5034888;28;20039;-85
2022/09/06 05:45:06;;;;;;;14.53;3.70;;;;;;;20.10;62.68;99908.22;5035536;28;20025;-87
2022/09/06 05:47:34;;;;;;;7.57;3.92;;;;;;;20.10;62.70;99911.81;5035190;28;20742;-87
2022/09/06 05:50:00;;;;;;;6.18;3.35;;;;;;;20.11;63.03;99902.41;5032004;28;20029;-86
2022/09/06 05:52:25;;;;;;;5.30;2.80;;;;;;;20.20;61.62;99909.88;5034857;28;20032;-85
2022/09/06 05:54:50;;;;;;;7.50;3.63;;;;;;;20.23;61.69;99920.28;5035494;28;20025;-86
2022/09/06 05:57:16;;;;;;;6.40;3.53;;;;;;;20.24;62.03;99913.63;5034580;28;20033;-87
2022/09/06 05:59:41;;;;;;;6.30;3.40;;;;;;;20.29;61.25;99911.50;5031631;28;20033;-82
2022/09/06 06:02:06;;;;;;;7.85;3.42;;;;;;;20.36;61.28;99905.44;5032445;28;20281;-82
2022/09/06 06:04:31;;;;;;;6.80;3.40;;;;;;;20.49;60.53;99902.81;5033090;28;20029;-84
2022/09/06 06:06:57;;;;;;;9.67;3.87;;;;;;;20.51;60.21;99903.31;5034145;28;20033;-84
2022/09/06 06:09:22;;;;;;;6.97;3.13;;;;;;;20.55;60.78;99895.97;5030387;28;20310;-87
2022/09/06 06:11:47;;;;;;;9.20;3.28;;;;;;;20.41;60.88;99896.97;5043036;28;20286;-87
2022/09/06 06:14:13;;;;;;;6.37;3.20;;;;;;;20.16;61.53;99896.69;5053437;28;20135;-87
2022/09/06 06:16:38;;;;;;;6.50;3.10;;;;;;;20.21;62.20;99894.88;5054438;28;20242;-86
2022/09/06 06:19:03;;;;;;;6.38;3.63;;;;;;;20.16;62.28;99890.31;5043633;28;20477;-83
2022/09/06 06:21:31;;;;;;;7.65;3.67;;;;;;;20.11;62.21;99884.97;5031081;28;20469;-83
2022/09/06 06:24:05;;;;;;;18.40;2.78;;;;;;;20.24;61.86;99885.94;5031308;28;20037;-81
2022/09/06 06:26:33;;;;;;;5.95;3.95;;;;;;;20.38;61.38;99883.78;5032199;28;20451;-82
2022/09/06 06:29:00;;;;;;;5.53;3.30;;;;;;;20.59;61.12;99888.63;5030610;28;20833;-86
2022/09/06 06:31:27;;;;;;;7.47;3.25;;;;;;;20.73;60.53;99876.50;5034159;28;20037;-86
2022/09/06 06:33:52;;;;;;;6.60;2.85;;;;;;;20.61;61.74;99879.97;5033813;28;20025;-83
2022/09/06 06:36:20;;;;;;;8.03;2.90;;;;;;;20.77;60.69;99878.31;5033158;28;20033;-83
2022/09/06 06:38:46;;;;;;;5.95;2.75;;;;;;;20.76;60.75;99879.47;5031629;28;20503;-82
2022/09/06 06:41:17;;;;;;;5.55;3.15;;;;;;;20.69;60.84;99878.31;5031979;28;20029;-82
2022/09/06 06:43:42;;;;;;;4.90;2.70;;;;;;;20.94;60.45;99881.34;5031953;28;20039;-86
2022/09/06 06:46:16;;;;;;;11.75;3.15;;;;;;;20.95;60.20;99874.66;5032537;28;20018;-86
2022/09/06 06:48:43;;;;;;;4.65;2.42;;;;;;;20.89;59.86;99874.00;5041422;28;20029;-85
2022/09/06 06:51:15;;;;;;;6.60;3.47;;;;;;;20.87;59.69;99871.56;5034785;28;20101;-84
2022/09/06 06:53:41;;;;;;;7.87;2.73;;;;;;;20.91;59.99;99870.94;5036684;28;20029;-84
2022/09/06 06:56:22;;;;;;;4.07;2.38;;;;;;;20.95;59.61;99872.69;5033595;28;20032;-83
2022/09/06 06:58:51;;;;;;;11.63;2.97;;;;;;;21.06;59.38;99867.63;5033025;28;20057;-85
2022/09/06 07:01:18;;;;;;;4.15;2.20;;;;;;;21.15;58.91;99864.00;5034831;28;20045;-85
2022/09/06 07:03:43;;;;;;;6.82;2.83;;;;;;;21.10;59.13;99857.50;5033506;28;20032;-83
2022/09/06 07:06:09;;;;;;;5.70;2.88;;;;;;;21.19;58.55;99862.19;5031383;28;20029;-81
2022/09/06 07:08:36;;;;;;;5.05;2.50;;;;;;;21.18;58.51;99858.59;5031424;28;20036;-85
2022/09/06 07:11:01;;;;;;;4.78;2.35;;;;;;;21.18;58.18;99855.81;5037321;28;20130;-86
2022/09/06 07:13:27;;;;;;;5.43;2.83;;;;;;;21.23;58.28;99861.16;5053581;28;20029;-86
2022/09/06 07:16:12;;;;;;;7.87;2.60;;;;;;;21.38;57.86;99861.72;5053620;28;20083;-86
2022/09/06 07:18:40;;;;;;;4.70;2.15;;;;;;;21.38;58.11;99852.59;5049139;28;20266;-84
2022/09/06 07:21:14;;;;;;;6.10;2.78;;;;;;;21.44;57.84;99857.59;5032551;28;20041;-86
2022/09/06 07:23:40;;;;;;;5.03;1.90;;;;;;;21.53;57.57;99853.97;5033802;28;20059;-84
2022/09/06 07:26:05;;;;;;;4.18;2.35;;;;;;;21.54;56.76;99864.72;5033549;28;20025;-85
2022/09/06 07:28:31;;;;;;;5.93;2.35;;;;;;;21.61;56.46;99852.25;5033270;28;20040;-84
2022/09/06 07:30:57;;;;;;;4.65;2.17;;;;;;;21.68;56.74;99855.31;5031606;28;20026;-84
2022/09/06 07:33:23;;;;;;;4.45;1.95;;;;;;;21.71;56.37;99860.19;5033356;28;20025;-86
2022/09/06 07:36:00;;;;;;;4.95;2.20;;;;;;;21.70;56.61;99858.56;5065975;28;20029;-86
2022/09/06 07:38:27;;;;;;;3.88;1.70;;;;;;;21.86;55.48;99856.03;5030570;28;20025;-86
2022/09/06 07:40:58;;;;;;;4.18;2.08;;;;;;;21.89;55.56;99858.09;5032898;28;20032;-86
2022/09/06 07:43:24;;;;;;;3.55;1.77;;;;;;;22.02;54.23;99855.38;5033699;28;20056;-85
2022/09/06 07:46:01;;;;;;;2.53;1.50;;;;;;;22.06;53.38;99858.28;5065635;28;20121;-84
2022/09/06 07:48:29;;;;;;;5.15;1.50;;;;;;;22.07;53.98;99846.06;5032887;28;20046;-81
2022/09/06 07:50:54;;;;;;;3.75;1.40;;;;;;;22.11;54.04;99844.22;5030358;28;20041;-81
2022/09/06 07:53:19;;;;;;;5.32;1.50;;;;;;;22.06;54.22;99845.22;5030601;28;20041;-82
2022/09/06 07:55:45;;;;;;;2.85;1.75;;;;;;;22.13;54.03;99842.69;5031600;28;20567;-82
2022/09/06 07:58:10;;;;;;;6.80;2.28;;;;;;;22.09;53.95;99843.75;5031658;28;20028;-83
2022/09/06 08:00:37;;;;;;;2.05;1.33;;;;;;;22.28;52.95;99838.47;5031580;28;20046;-85
2022/09/06 08:03:02;;;;;;;2.78;1.27;;;;;;;22.40;53.11;99847.97;5031796;28;20026;-84
2022/09/06 08:05:28;;;;;;;1.48;1.15;;;;;;;22.49;52.42;99845.94;5032926;28;20124;-85
2022/09/06 08:07:53;;;;;;;6.20;1.50;;;;;;;22.56;52.12;99850.91;5033162;28;20065;-85
2022/09/06 08:10:18;;;;;;;6.07;1.57;;;;;;;22.46;52.58;99841.06;5029855;28;20793;-86
2022/09/06 08:12:43;;;;;;;2.57;1.10;;;;;;;22.58;52.13;99851.38;5050518;28;20316;-87
2022/09/06 08:15:09;;;;;;;3.17;1.70;;;;;;;22.57;51.71;99858.09;5052449;28;20297;-82
2022/09/06 08:17:34;;;;;;;1.35;0.80;;;;;;;22.65;51.19;99848.06;5045981;28;20271;-82
2022/09/06 08:20:01;;;;;;;4.95;1.80;;;;;;;22.70;50.47;99850.59;5027010;28;20042;-85
2022/09/06 08:22:31;;;;;;;5.22;1.35;;;;;;;22.74;50.52;99857.09;5032869;28;20022;-85
2022/09/06 08:24:57;;;;;;;4.13;1.88;;;;;;;22.96;50.69;99857.78;5034791;28;20033;-84
2022/09/06 08:27:22;;;;;;;3.40;1.53;;;;;;;22.92;50.53;99856.88;5036582;28;20495;-84
2022/09/06 08:29:47;;;;;;;2.08;1.10;;;;;;;23.12;50.21;99857.09;5033612;28;20278;-80
2022/09/06 08:32:13;;;;;;;2.03;1.00;;;;;;;23.42;49.06;99856.03;5034050;28;20029;-82
2022/09/06 08:34:38;;;;;;;2.40;1.10;;;;;;;23.33;49.41;99853.34;5035350;28;20041;-83
2022/09/06 08:37:04;;;;;;;6.70;1.17;;;;;;;23.41;49.60;99851.63;5035769;28;20037;-84
2022/09/06 08:39:29;;;;;;;4.18;1.02;;;;;;;23.59;49.19;99851.38;5035263;28;20037;-86
2022/09/06 08:42:01;;;;;;;3.43;1.50;;;;;;;23.80;49.23;99851.19;5036953;28;20030;-86
2022/09/06 08:44:39;;;;;;;1.80;1.10;;;;;;;23.92;48.21;99849.53;5036443;28;20250;-87
2022/09/06 08:47:10;;;;;;;5.40;1.90;;;;;;;23.83;48.80;99858.84;5052941;28;20147;-86
2022/09/06 08:50:02;;;;;;;3.55;1.30;;;;;;;23.93;48.68;99860.31;5028184;28;20045;-86
2022/09/06 08:53:09;;;;;;;4.80;1.23;;;;;;;23.81;48.37;99852.00;5016301;28;20037;-86
2022/09/06 08:55:35;;;;;;;2.42;1.10;;;;;;;23.68;49.24;99863.16;5013027;28;20121;-86
2022/09/06 08:58:22;;;;;;;4.15;1.58;;;;;;;23.59;49.35;99854.97;5031767;28;20069;-86
2022/09/06 09:00:59;;;;;;;4.75;1.70;;;;;;;23.80;48.79;99853.97;5032195;28;20404;-81
2022/09/06 09:03:32;;;;;;;5.13;1.35;;;;;;;23.86;48.08;99852.56;5033629;28;20025;-85
2022/09/06 09:05:58;;;;;;;2.10;1.05;;;;;;;23.85;47.64;99850.94;5036228;28;20030;-84
2022/09/06 09:08:46;;;;;;;1.55;0.85;;;;;;;23.86;47.65;99854.56;5035532;28;20034;-84
2022/09/06 09:11:21;;;;;;;4.20;1.00;;;;;;;23.95;46.70;99849.63;5035426;28;20042;-84
2022/09/06 09:13:49;;;;;;;2.15;0.90;;;;;;;24.10;46.36;99842.47;5034198;28;20052;-82
2022/09/06 09:16:16;;;;;;;2.55;0.98;;;;;;;24.20;45.66;99843.13;5033835;28;20033;-83
2022/09/06 09:18:49;;;;;;;5.90;1.20;;;;;;;24.14;45.82;99842.59;5043276;28;20041;-85
2022/09/06 09:21:19;;;;;;;2.78;0.60;;;;;;;24.37;45.04;99845.63;5016336;28;20489;-86
2022/09/06 09:23:50;;;;;;;1.50;0.85;;;;;;;23.95;46.65;99843.25;5014389;28;20034;-86
2022/09/06 09:26:16;;;;;;;5.70;0.85;;;;;;;23.98;46.94;99837.78;5015107;28;20107;-84
2022/09/06 09:29:08;;;;;;;4.15;1.20;;;;;;;24.14;46.20;99825.88;5019412;28;20026;-87
2022/09/06 09:31:36;;;;;;;5.28;1.00;;;;;;;24.13;46.34;99827.84;5019965;28;20038;-87
2022/09/06 09:34:03;;;;;;;3.92;1.42;;;;;;;24.18;45.39;99829.59;5017553;28;20485;-84
2022/09/06 09:36:30;;;;;;;2.22;1.02;;;;;;;24.30;45.80;99823.16;5014316;28;20029;-85
2022/09/06 09:38:57;;;;;;;16.50;1.27;;;;;;;24.10;46.40;99827.75;5020571;28;20030;-87
2022/09/06 09:41:33;;;;;;;2.38;0.70;;;;;;;24.24;45.84;99822.63;5034318;28;20038;-87
2022/09/06 09:44:04;;;;;;;3.95;1.25;;;;;;;24.12;46.44;99819.88;5035688;28;20029;-87
2022/09/06 09:46:32;;;;;;;5.07;2.20;;;;;;;24.18;46.07;99817.63;5035479;28;20057;-87
2022/09/06 09:49:07;;;;;;;2.00;1.00;;;;;;;24.26;45.91;99805.53;5041066;28;20481;-84
2022/09/06 09:52:02;;;;;;;1.42;0.73;;;;;;;24.52;45.22;99815.34;5015210;28;20034;-84
2022/09/06 09:54:34;;;;;;;2.47;0.90;;;;;;;24.64;44.71;99810.84;5014133;28;20436;-81
2022/09/06 09:57:00;;;;;;;1.92;1.08;;;;;;;24.82;44.33;99805.69;5013046;28;20068;-81
2022/09/06 09:59:36;;;;;;;3.15;0.98;;;;;;;24.42;46.21;99799.16;5022892;28;20041;-85
2022/09/06 10:02:18;;;;;;;2.10;0.85;;;;;;;24.45;45.34;99809.59;5033750;28;20549;-86
2022/09/06 10:04:51;;;;;;;2.28;0.90;;;;;;;24.49;45.52;99788.19;5033563;28;20026;-87
2022/09/06 10:07:19;;;;;;;1.42;0.73;;;;;;;24.67;45.18;99807.34;5034080;28;20029;-87
2022/09/06 10:10:09;;;;;;;5.80;1.30;;;;;;;24.86;44.57;99794.63;5027284;28;20041;-81
2022/09/06 10:12:37;;;;;;;1.98;1.08;;;;;;;24.89;44.85;99800.31;5033148;28;20029;-82
2022/09/06 10:15:05;;;;;;;1.42;0.70;;;;;;;24.69;44.82;99796.66;5025904;28;20108;-81
2022/09/06 10:17:47;;;;;;;5.28;0.80;;;;;;;24.58;45.49;99797.19;5032387;28;20064;-82
2022/09/06 10:20:13;;;;;;;3.10;0.82;;;;;;;24.64;45.52;99803.31;5025012;28;20045;-89
2022/09/06 10:23:01;;;;;;;104.50;14.15;;;;;;;24.77;45.33;99795.66;5029030;28;20025;-87
2022/09/06 10:25:37;;;;;;;2.33;0.98;;;;;;;24.98;44.20;99794.56;5034007;28;20061;-84
2022/09/06 10:28:11;;;;;;;2.40;0.95;;;;;;;24.95;44.28;99792.47;5033801;28;20018;-84
2022/09/06 10:31:08;;;;;;;3.28;0.73;;;;;;;24.88;44.48;99786.72;5031290;28;20029;-83
2022/09/06 10:33:44;;;;;;;1.48;0.82;;;;;;;25.28;43.54;99780.06;5032144;28;20079;-81
2022/09/06 10:36:09;;;;;;;5.40;0.98;;;;;;;25.12;44.76;99784.91;5030655;28;20041;-80
2022/09/06 10:38:51;;;;;;;3.73;1.10;;;;;;;25.45;43.67;99789.19;5030799;28;20083;-85
2022/09/06 10:41:54;;;;;;;8.70;1.67;;;;;;;25.24;44.08;99786.75;5020733;28;20955;-84
2022/09/06 10:44:47;;;;;;;3.20;0.80;;;;;;;25.18;44.89;99783.47;5030024;28;20029;-81
2022/09/06 10:47:13;;;;;;;4.43;1.07;;;;;;;25.18;44.84;99787.03;5033178;28;20045;-81
2022/09/06 10:49:44;;;;;;;2.25;1.10;;;;;;;25.14;45.08;99782.56;5030845;28;20282;-83
2022/09/06 10:52:15;;;;;;;3.35;1.08;;;;;;;25.34;44.28;99775.03;5032906;28;20075;-83
2022/09/06 10:54:41;;;;;;;3.30;1.10;;;;;;;25.32;44.76;99777.38;5033209;28;20037;-89
2022/09/06 10:57:10;;;;;;;1.58;0.93;;;;;;;25.19;45.35;99790.63;5034349;28;20041;-89
2022/09/06 10:59:48;;;;;;;2.15;1.10;;;;;;;25.30;44.79;99791.66;5028702;28;20044;-82
2022/09/06 11:02:36;;;;;;;2.55;1.20;;;;;;;25.63;43.25;99778.41;5030233;28;20481;-80
2022/09/06 11:05:06;;;;;;;2.33;0.90;;;;;;;26.26;42.02;99780.38;5032823;28;20026;-85
2022/09/06 11:07:38;;;;;;;3.40;1.15;;;;;;;26.02;42.79;99775.94;5033738;28;20484;-85
2022/09/06 11:10:13;;;;;;;3.03;1.02;;;;;;;26.16;42.29;99773.41;5031022;28;20087;-80
2022/09/06 11:12:41;;;;;;;2.40;1.10;;;;;;;25.88;42.59;99775.31;5047104;28;20100;-80
2022/09/06 11:15:10;;;;;;;1.45;0.80;;;;;;;26.14;42.57;99769.41;5052700;28;20045;-85
2022/09/06 11:17:42;;;;;;;4.93;1.20;;;;;;;25.95;42.30;99771.88;5053421;28;20055;-85
2022/09/06 11:20:28;;;;;;;2.88;1.00;;;;;;;25.86;42.30;99763.72;5035063;28;20481;-80
2022/09/06 11:23:29;;;;;;;3.72;1.45;;;;;;;26.05;41.97;99772.44;5030092;28;20029;-81
2022/09/06 11:26:15;;;;;;;3.65;2.15;;;;;;;25.88;43.12;99780.91;5025899;28;20128;-80
2022/09/06 11:28:47;;;;;;;6.70;1.52;;;;;;;26.27;41.34;99778.41;5025508;28;20041;-84
2022/09/06 11:31:30;;;;;;;2.40;1.25;;;;;;;26.23;41.87;99773.56;5013703;28;20053;-84
2022/09/06 11:34:22;;;;;;;3.28;1.00;;;;;;;26.27;41.86;99781.19;5029371;28;20028;-89
2022/09/06 11:36:54;;;;;;;2.53;0.90;;;;;;;26.03;42.54;99781.19;5032714;28;20044;-89
2022/09/06 11:39:29;;;;;;;37.28;2.42;;;;;;;25.92;42.77;99780.16;5031430;28;20073;-80
2022/09/06 11:41:55;;;;;;;2.05;0.85;;;;;;;26.66;40.90;99778.28;5028822;28;20025;-80
2022/09/06 11:44:48;;;;;;;5.22;1.42;;;;;;;26.86;40.52;99769.78;5030000;28;20049;-80
2022/09/06 11:47:40;;;;;;;3.92;1.00;;;;;;;26.62;40.41;99771.81;5046946;28;20049;-80